sensor_id;sensor_type;location;lat;lon;timestamp;temperature;humidity
5689;DHT22;2869;50.432;8.680;2023-07-24T00:00:12;18.20;99.90
5689;DHT22;2869;50.432;8.680;2023-07-24T00:02:39;18.10;99.90
5689;DHT22;2869;50.432;8.680;2023-07-24T00:05:06;18.10;99.90
5689;DHT22;2869;50.432;8.680;2023-07-24T00:07:34;18.10;99.90
5689;DHT22;2869;50.432;8.680;2023-07-24T00:10:01;18.00;99.90
5689;DHT22;2869;50.432;8.680;2023-07-24T00:12:27;18.00;99.90
5689;DHT22;2869;50.432;8.680;2023-07-24T00:14:54;17.90;99.90
5689;DHT22;2869;50.432;8.680;2023-07-24T00:17:21;17.80;99.90
5689;DHT22;2869;50.432;8.680;2023-07-24T00:19:48;17.80;99.90
5689;DHT22;2869;50.432;8.680;2023-07-24T00:22:14;17.70;99.90
5689;DHT22;2869;50.432;8.680;2023-07-24T00:24:42;17.70;99.90
5689;DHT22;2869;50.432;8.680;2023-07-24T00:27:09;17.70;99.90
5689;DHT22;2869;50.432;8.680;2023-07-24T00:29:36;17.60;99.90
5689;DHT22;2869;50.432;8.680;2023-07-24T00:32:03;17.60;99.90
5689;DHT22;2869;50.432;8.680;2023-07-24T00:34:29;17.60;99.90
5689;DHT22;2869;50.432;8.680;2023-07-24T00:36:56;17.60;99.90
5689;DHT22;2869;50.432;8.680;2023-07-24T00:39:23;17.50;99.90
5689;DHT22;2869;50.432;8.680;2023-07-24T00:41:51;17.50;99.90
5689;DHT22;2869;50.432;8.680;2023-07-24T00:44:18;17.50;99.90
5689;DHT22;2869;50.432;8.680;2023-07-24T00:46:45;17.50;99.90
5689;DHT22;2869;50.432;8.680;2023-07-24T00:49:12;17.50;99.90
5689;DHT22;2869;50.432;8.680;2023-07-24T00:51:39;17.50;99.90
5689;DHT22;2869;50.432;8.680;2023-07-24T00:54:06;17.50;99.90
5689;DHT22;2869;50.432;8.680;2023-07-24T00:56:34;17.50;99.90
5689;DHT22;2869;50.432;8.680;2023-07-24T00:59:02;17.50;99.90
5689;DHT22;2869;50.432;8.680;2023-07-24T01:01:29;17.50;99.90
5689;DHT22;2869;50.432;8.680;2023-07-24T01:03:57;17.50;99.90
5689;DHT22;2869;50.432;8.680;2023-07-24T01:06:24;17.50;99.90
5689;DHT22;2869;50.432;8.680;2023-07-24T01:08:51;17.50;99.90
5689;DHT22;2869;50.432;8.680;2023-07-24T01:11:19;17.50;99.90
5689;DHT22;2869;50.432;8.680;2023-07-24T01:13:56;17.60;99.90
5689;DHT22;2869;50.432;8.680;2023-07-24T01:16:28;17.60;99.90
5689;DHT22;2869;50.432;8.680;2023-07-24T01:18:57;17.60;99.90
5689;DHT22;2869;50.432;8.680;2023-07-24T01:21:32;17.60;99.90
5689;DHT22;2869;50.432;8.680;2023-07-24T01:24:09;17.60;99.90
5689;DHT22;2869;50.432;8.680;2023-07-24T01:26:42;17.70;99.90
5689;DHT22;2869;50.432;8.680;2023-07-24T01:29:09;17.70;99.90
5689;DHT22;2869;50.432;8.680;2023-07-24T01:31:36;17.70;99.90
5689;DHT22;2869;50.432;8.680;2023-07-24T01:34:02;17.70;99.90
5689;DHT22;2869;50.432;8.680;2023-07-24T01:36:29;17.70;99.90
5689;DHT22;2869;50.432;8.680;2023-07-24T01:38:56;17.70;99.90
5689;DHT22;2869;50.432;8.680;2023-07-24T01:41:23;17.70;99.90
5689;DHT22;2869;50.432;8.680;2023-07-24T01:43:51;17.70;99.90
5689;DHT22;2869;50.432;8.680;2023-07-24T01:46:18;17.70;99.90
5689;DHT22;2869;50.432;8.680;2023-07-24T01:48:45;17.70;99.90
5689;DHT22;2869;50.432;8.680;2023-07-24T01:51:12;17.70;99.90
5689;DHT22;2869;50.432;8.680;2023-07-24T01:53:38;17.70;99.90
5689;DHT22;2869;50.432;8.680;2023-07-24T01:56:05;17.60;99.90
5689;DHT22;2869;50.432;8.680;2023-07-24T01:58:31;17.60;99.90
5689;DHT22;2869;50.432;8.680;2023-07-24T02:00:59;17.60;99.90
5689;DHT22;2869;50.432;8.680;2023-07-24T02:03:26;17.60;99.90
5689;DHT22;2869;50.432;8.680;2023-07-24T02:05:53;17.60;99.90
5689;DHT22;2869;50.432;8.680;2023-07-24T02:08:19;17.60;99.90
5689;DHT22;2869;50.432;8.680;2023-07-24T02:10:48;17.60;99.90
5689;DHT22;2869;50.432;8.680;2023-07-24T02:13:16;17.60;99.90
5689;DHT22;2869;50.432;8.680;2023-07-24T02:15:42;17.60;99.90
5689;DHT22;2869;50.432;8.680;2023-07-24T02:18:10;17.70;99.90
5689;DHT22;2869;50.432;8.680;2023-07-24T02:20:37;17.70;99.90
5689;DHT22;2869;50.432;8.680;2023-07-24T02:23:03;17.70;99.90
5689;DHT22;2869;50.432;8.680;2023-07-24T02:25:30;17.80;99.90
5689;DHT22;2869;50.432;8.680;2023-07-24T02:27:57;17.80;99.90
5689;DHT22;2869;50.432;8.680;2023-07-24T02:30:23;17.80;99.90
5689;DHT22;2869;50.432;8.680;2023-07-24T02:32:50;17.80;99.90
5689;DHT22;2869;50.432;8.680;2023-07-24T02:35:18;17.80;99.90
5689;DHT22;2869;50.432;8.680;2023-07-24T02:37:44;17.80;99.90
5689;DHT22;2869;50.432;8.680;2023-07-24T02:40:12;17.70;99.90
5689;DHT22;2869;50.432;8.680;2023-07-24T02:42:38;17.80;99.90
5689;DHT22;2869;50.432;8.680;2023-07-24T02:45:06;17.80;99.90
5689;DHT22;2869;50.432;8.680;2023-07-24T02:47:36;17.80;99.90
5689;DHT22;2869;50.432;8.680;2023-07-24T02:50:03;17.80;99.90
5689;DHT22;2869;50.432;8.680;2023-07-24T02:52:31;17.80;99.90
5689;DHT22;2869;50.432;8.680;2023-07-24T02:54:57;17.80;99.90
5689;DHT22;2869;50.432;8.680;2023-07-24T02:57:24;17.80;99.90
5689;DHT22;2869;50.432;8.680;2023-07-24T02:59:51;17.80;99.90
5689;DHT22;2869;50.432;8.680;2023-07-24T03:02:17;17.80;99.90
5689;DHT22;2869;50.432;8.680;2023-07-24T03:04:44;17.80;99.90
5689;DHT22;2869;50.432;8.680;2023-07-24T03:07:10;17.80;99.90
5689;DHT22;2869;50.432;8.680;2023-07-24T03:09:38;17.80;99.90
5689;DHT22;2869;50.432;8.680;2023-07-24T03:12:06;17.80;99.90
5689;DHT22;2869;50.432;8.680;2023-07-24T03:14:32;17.80;99.90
5689;DHT22;2869;50.432;8.680;2023-07-24T03:16:59;17.80;99.90
5689;DHT22;2869;50.432;8.680;2023-07-24T03:19:26;17.80;99.90
5689;DHT22;2869;50.432;8.680;2023-07-24T03:21:52;17.80;99.90
5689;DHT22;2869;50.432;8.680;2023-07-24T03:24:19;17.90;99.90
5689;DHT22;2869;50.432;8.680;2023-07-24T03:26:47;17.90;99.90
5689;DHT22;2869;50.432;8.680;2023-07-24T03:29:14;17.90;99.90
5689;DHT22;2869;50.432;8.680;2023-07-24T03:31:40;17.90;99.90
5689;DHT22;2869;50.432;8.680;2023-07-24T03:34:07;17.90;99.90
5689;DHT22;2869;50.432;8.680;2023-07-24T03:36:34;17.90;99.90
5689;DHT22;2869;50.432;8.680;2023-07-24T03:39:01;17.80;99.90
5689;DHT22;2869;50.432;8.680;2023-07-24T03:41:28;17.80;99.90
5689;DHT22;2869;50.432;8.680;2023-07-24T03:43:55;17.80;99.90
5689;DHT22;2869;50.432;8.680;2023-07-24T03:46:22;17.80;99.90
5689;DHT22;2869;50.432;8.680;2023-07-24T03:48:49;17.70;99.90
5689;DHT22;2869;50.432;8.680;2023-07-24T03:51:16;17.70;99.90
5689;DHT22;2869;50.432;8.680;2023-07-24T03:53:43;17.70;99.90
5689;DHT22;2869;50.432;8.680;2023-07-24T03:56:09;17.70;99.90
5689;DHT22;2869;50.432;8.680;2023-07-24T03:58:37;17.60;99.90
5689;DHT22;2869;50.432;8.680;2023-07-24T04:01:06;17.60;99.90
5689;DHT22;2869;50.432;8.680;2023-07-24T04:03:32;17.60;99.90
5689;DHT22;2869;50.432;8.680;2023-07-24T04:05:59;17.60;99.90
5689;DHT22;2869;50.432;8.680;2023-07-24T04:08:26;17.60;99.90
5689;DHT22;2869;50.432;8.680;2023-07-24T04:10:52;17.60;99.90
5689;DHT22;2869;50.432;8.680;2023-07-24T04:13:21;17.60;99.90
5689;DHT22;2869;50.432;8.680;2023-07-24T04:15:48;17.60;99.90
5689;DHT22;2869;50.432;8.680;2023-07-24T04:18:17;17.60;99.90
5689;DHT22;2869;50.432;8.680;2023-07-24T04:20:43;17.60;99.90
5689;DHT22;2869;50.432;8.680;2023-07-24T04:23:10;17.60;99.90
5689;DHT22;2869;50.432;8.680;2023-07-24T04:25:37;17.60;99.90
5689;DHT22;2869;50.432;8.680;2023-07-24T04:28:04;17.60;99.90
5689;DHT22;2869;50.432;8.680;2023-07-24T04:30:30;17.70;99.90
5689;DHT22;2869;50.432;8.680;2023-07-24T04:32:57;17.70;99.90
5689;DHT22;2869;50.432;8.680;2023-07-24T04:35:26;17.90;99.90
5689;DHT22;2869;50.432;8.680;2023-07-24T04:37:53;17.90;99.90
5689;DHT22;2869;50.432;8.680;2023-07-24T04:40:19;18.00;99.90
5689;DHT22;2869;50.432;8.680;2023-07-24T04:42:46;18.00;99.90
5689;DHT22;2869;50.432;8.680;2023-07-24T04:45:13;18.00;99.90
5689;DHT22;2869;50.432;8.680;2023-07-24T04:47:39;18.00;99.90
5689;DHT22;2869;50.432;8.680;2023-07-24T04:50:06;18.00;99.90
5689;DHT22;2869;50.432;8.680;2023-07-24T04:52:34;18.00;99.90
5689;DHT22;2869;50.432;8.680;2023-07-24T04:55:01;18.10;99.90
5689;DHT22;2869;50.432;8.680;2023-07-24T04:57:27;18.10;99.90
5689;DHT22;2869;50.432;8.680;2023-07-24T04:59:54;18.10;99.90
5689;DHT22;2869;50.432;8.680;2023-07-24T05:02:21;18.10;99.90
5689;DHT22;2869;50.432;8.680;2023-07-24T05:04:47;18.10;99.90
5689;DHT22;2869;50.432;8.680;2023-07-24T05:07:14;18.20;99.90
5689;DHT22;2869;50.432;8.680;2023-07-24T05:09:42;18.20;99.90
5689;DHT22;2869;50.432;8.680;2023-07-24T05:12:09;18.20;99.90
5689;DHT22;2869;50.432;8.680;2023-07-24T05:14:35;18.20;99.90
5689;DHT22;2869;50.432;8.680;2023-07-24T05:17:02;18.20;99.90
5689;DHT22;2869;50.432;8.680;2023-07-24T05:19:29;18.20;99.90
5689;DHT22;2869;50.432;8.680;2023-07-24T05:21:55;18.20;99.90
5689;DHT22;2869;50.432;8.680;2023-07-24T05:24:22;18.20;99.90
5689;DHT22;2869;50.432;8.680;2023-07-24T05:26:50;18.20;99.90
5689;DHT22;2869;50.432;8.680;2023-07-24T05:29:17;18.20;99.90
5689;DHT22;2869;50.432;8.680;2023-07-24T05:31:43;18.20;99.90
5689;DHT22;2869;50.432;8.680;2023-07-24T05:34:10;18.20;99.90
5689;DHT22;2869;50.432;8.680;2023-07-24T05:36:36;18.20;99.90
5689;DHT22;2869;50.432;8.680;2023-07-24T05:39:03;18.20;99.90
5689;DHT22;2869;50.432;8.680;2023-07-24T05:41:30;18.30;99.90
5689;DHT22;2869;50.432;8.680;2023-07-24T05:43:58;18.30;99.90
5689;DHT22;2869;50.432;8.680;2023-07-24T05:46:24;18.40;99.90
5689;DHT22;2869;50.432;8.680;2023-07-24T05:48:51;18.40;99.90
5689;DHT22;2869;50.432;8.680;2023-07-24T05:51:17;18.50;99.90
5689;DHT22;2869;50.432;8.680;2023-07-24T05:53:44;18.50;99.90
5689;DHT22;2869;50.432;8.680;2023-07-24T05:56:11;18.60;99.90
5689;DHT22;2869;50.432;8.680;2023-07-24T05:58:37;18.70;99.90
5689;DHT22;2869;50.432;8.680;2023-07-24T06:01:05;18.80;99.90
5689;DHT22;2869;50.432;8.680;2023-07-24T06:03:33;18.90;99.90
5689;DHT22;2869;50.432;8.680;2023-07-24T06:06:00;19.10;99.90
5689;DHT22;2869;50.432;8.680;2023-07-24T06:08:26;19.30;99.90
5689;DHT22;2869;50.432;8.680;2023-07-24T06:10:53;19.50;99.90
5689;DHT22;2869;50.432;8.680;2023-07-24T06:13:20;19.70;99.90
5689;DHT22;2869;50.432;8.680;2023-07-24T06:15:47;19.80;99.90
5689;DHT22;2869;50.432;8.680;2023-07-24T06:18:15;19.80;99.90
5689;DHT22;2869;50.432;8.680;2023-07-24T06:20:42;19.90;99.90
5689;DHT22;2869;50.432;8.680;2023-07-24T06:23:09;20.00;99.90
5689;DHT22;2869;50.432;8.680;2023-07-24T06:25:35;20.10;99.90
5689;DHT22;2869;50.432;8.680;2023-07-24T06:28:02;20.20;99.90
5689;DHT22;2869;50.432;8.680;2023-07-24T06:30:29;20.20;99.90
5689;DHT22;2869;50.432;8.680;2023-07-24T06:32:55;20.00;99.90
5689;DHT22;2869;50.432;8.680;2023-07-24T06:35:23;20.00;99.90
5689;DHT22;2869;50.432;8.680;2023-07-24T06:37:50;19.80;99.90
5689;DHT22;2869;50.432;8.680;2023-07-24T06:40:17;19.70;99.90
5689;DHT22;2869;50.432;8.680;2023-07-24T06:42:43;19.70;99.90
5689;DHT22;2869;50.432;8.680;2023-07-24T06:45:10;19.70;99.90
5689;DHT22;2869;50.432;8.680;2023-07-24T06:47:37;19.70;99.90
5689;DHT22;2869;50.432;8.680;2023-07-24T06:50:04;19.70;99.90
5689;DHT22;2869;50.432;8.680;2023-07-24T06:52:32;19.80;99.90
5689;DHT22;2869;50.432;8.680;2023-07-24T06:54:59;19.90;99.90
5689;DHT22;2869;50.432;8.680;2023-07-24T06:57:26;19.90;99.90
5689;DHT22;2869;50.432;8.680;2023-07-24T06:59:52;19.90;99.90
5689;DHT22;2869;50.432;8.680;2023-07-24T07:02:19;20.10;99.90
5689;DHT22;2869;50.432;8.680;2023-07-24T07:04:46;20.10;99.90
5689;DHT22;2869;50.432;8.680;2023-07-24T07:07:12;20.10;99.90
5689;DHT22;2869;50.432;8.680;2023-07-24T07:09:40;20.10;99.90
5689;DHT22;2869;50.432;8.680;2023-07-24T07:12:07;20.10;99.90
5689;DHT22;2869;50.432;8.680;2023-07-24T07:14:34;20.10;99.90
5689;DHT22;2869;50.432;8.680;2023-07-24T07:17:01;20.10;99.90
5689;DHT22;2869;50.432;8.680;2023-07-24T07:19:27;20.10;99.90
5689;DHT22;2869;50.432;8.680;2023-07-24T07:21:54;20.10;99.90
5689;DHT22;2869;50.432;8.680;2023-07-24T07:24:21;20.10;99.90
5689;DHT22;2869;50.432;8.680;2023-07-24T07:26:49;20.10;99.90
5689;DHT22;2869;50.432;8.680;2023-07-24T07:29:15;20.10;99.90
5689;DHT22;2869;50.432;8.680;2023-07-24T07:31:42;20.10;99.90
5689;DHT22;2869;50.432;8.680;2023-07-24T07:34:08;20.10;99.90
5689;DHT22;2869;50.432;8.680;2023-07-24T07:36:35;20.30;99.90
5689;DHT22;2869;50.432;8.680;2023-07-24T07:39:02;20.40;99.90
5689;DHT22;2869;50.432;8.680;2023-07-24T07:41:28;20.50;99.90
5689;DHT22;2869;50.432;8.680;2023-07-24T07:43:57;20.60;99.90
5689;DHT22;2869;50.432;8.680;2023-07-24T07:46:24;20.70;99.90
5689;DHT22;2869;50.432;8.680;2023-07-24T07:48:51;20.70;99.90
5689;DHT22;2869;50.432;8.680;2023-07-24T07:51:17;20.80;99.90
5689;DHT22;2869;50.432;8.680;2023-07-24T07:53:44;20.80;99.90
5689;DHT22;2869;50.432;8.680;2023-07-24T07:56:11;20.80;99.90
5689;DHT22;2869;50.432;8.680;2023-07-24T07:58:37;20.80;99.90
5689;DHT22;2869;50.432;8.680;2023-07-24T08:01:06;20.80;99.90
5689;DHT22;2869;50.432;8.680;2023-07-24T08:03:32;20.80;99.90
5689;DHT22;2869;50.432;8.680;2023-07-24T08:05:59;20.90;99.90
5689;DHT22;2869;50.432;8.680;2023-07-24T08:08:26;20.90;99.90
5689;DHT22;2869;50.432;8.680;2023-07-24T08:10:53;21.10;99.90
5689;DHT22;2869;50.432;8.680;2023-07-24T08:13:19;21.20;99.90
5689;DHT22;2869;50.432;8.680;2023-07-24T08:15:46;21.20;99.90
5689;DHT22;2869;50.432;8.680;2023-07-24T08:18:14;21.40;99.90
5689;DHT22;2869;50.432;8.680;2023-07-24T08:20:40;21.50;99.90
5689;DHT22;2869;50.432;8.680;2023-07-24T08:23:07;21.70;99.90
5689;DHT22;2869;50.432;8.680;2023-07-24T08:25:34;21.90;99.90
5689;DHT22;2869;50.432;8.680;2023-07-24T08:28:00;22.00;99.90
5689;DHT22;2869;50.432;8.680;2023-07-24T08:30:27;22.20;99.90
5689;DHT22;2869;50.432;8.680;2023-07-24T08:32:54;22.30;99.90
5689;DHT22;2869;50.432;8.680;2023-07-24T08:35:22;22.40;99.90
5689;DHT22;2869;50.432;8.680;2023-07-24T08:37:48;22.50;99.90
5689;DHT22;2869;50.432;8.680;2023-07-24T08:40:16;22.50;99.90
5689;DHT22;2869;50.432;8.680;2023-07-24T08:42:43;22.50;99.90
5689;DHT22;2869;50.432;8.680;2023-07-24T08:45:12;22.50;99.90
5689;DHT22;2869;50.432;8.680;2023-07-24T08:47:42;22.50;99.90
5689;DHT22;2869;50.432;8.680;2023-07-24T08:50:09;22.70;99.90
5689;DHT22;2869;50.432;8.680;2023-07-24T08:52:39;22.80;99.90
5689;DHT22;2869;50.432;8.680;2023-07-24T08:55:08;23.00;99.90
5689;DHT22;2869;50.432;8.680;2023-07-24T08:57:35;23.10;99.90
5689;DHT22;2869;50.432;8.680;2023-07-24T09:00:03;23.20;99.90
5689;DHT22;2869;50.432;8.680;2023-07-24T09:02:32;23.20;99.90
5689;DHT22;2869;50.432;8.680;2023-07-24T09:04:59;23.20;99.90
5689;DHT22;2869;50.432;8.680;2023-07-24T09:07:26;23.30;99.90
5689;DHT22;2869;50.432;8.680;2023-07-24T09:09:54;23.30;99.90
5689;DHT22;2869;50.432;8.680;2023-07-24T09:12:22;23.30;99.90
5689;DHT22;2869;50.432;8.680;2023-07-24T09:14:48;23.20;99.90
5689;DHT22;2869;50.432;8.680;2023-07-24T09:17:15;23.20;99.90
5689;DHT22;2869;50.432;8.680;2023-07-24T09:19:42;23.10;99.90
5689;DHT22;2869;50.432;8.680;2023-07-24T09:22:10;23.10;99.90
5689;DHT22;2869;50.432;8.680;2023-07-24T09:24:37;23.20;99.90
5689;DHT22;2869;50.432;8.680;2023-07-24T09:27:06;23.20;99.90
5689;DHT22;2869;50.432;8.680;2023-07-24T09:29:33;23.30;99.90
5689;DHT22;2869;50.432;8.680;2023-07-24T09:32:01;23.30;99.90
5689;DHT22;2869;50.432;8.680;2023-07-24T09:34:27;23.60;99.90
5689;DHT22;2869;50.432;8.680;2023-07-24T09:36:54;23.70;99.90
5689;DHT22;2869;50.432;8.680;2023-07-24T09:39:23;23.80;99.90
5689;DHT22;2869;50.432;8.680;2023-07-24T09:41:49;23.90;99.90
5689;DHT22;2869;50.432;8.680;2023-07-24T09:44:17;24.00;99.90
5689;DHT22;2869;50.432;8.680;2023-07-24T09:46:44;23.90;99.90
5689;DHT22;2869;50.432;8.680;2023-07-24T09:49:10;24.00;99.90
5689;DHT22;2869;50.432;8.680;2023-07-24T09:51:37;24.30;99.90
5689;DHT22;2869;50.432;8.680;2023-07-24T09:54:08;24.50;99.90
5689;DHT22;2869;50.432;8.680;2023-07-24T09:56:39;24.50;99.90
5689;DHT22;2869;50.432;8.680;2023-07-24T09:59:07;24.60;99.90
5689;DHT22;2869;50.432;8.680;2023-07-24T10:01:36;24.70;99.90
5689;DHT22;2869;50.432;8.680;2023-07-24T10:04:04;24.90;99.90
5689;DHT22;2869;50.432;8.680;2023-07-24T10:06:31;24.80;99.90
5689;DHT22;2869;50.432;8.680;2023-07-24T10:08:58;24.80;99.90
5689;DHT22;2869;50.432;8.680;2023-07-24T10:11:26;24.70;99.90
5689;DHT22;2869;50.432;8.680;2023-07-24T10:13:53;24.60;99.90
5689;DHT22;2869;50.432;8.680;2023-07-24T10:16:20;24.90;99.90
5689;DHT22;2869;50.432;8.680;2023-07-24T10:18:48;25.10;99.90
5689;DHT22;2869;50.432;8.680;2023-07-24T10:21:15;25.10;99.90
5689;DHT22;2869;50.432;8.680;2023-07-24T10:23:43;25.00;99.90
5689;DHT22;2869;50.432;8.680;2023-07-24T10:26:12;24.80;99.90
5689;DHT22;2869;50.432;8.680;2023-07-24T10:28:40;24.70;99.90
5689;DHT22;2869;50.432;8.680;2023-07-24T10:31:18;24.80;99.90
5689;DHT22;2869;50.432;8.680;2023-07-24T10:33:45;24.70;99.90
5689;DHT22;2869;50.432;8.680;2023-07-24T10:36:16;24.80;99.90
5689;DHT22;2869;50.432;8.680;2023-07-24T10:38:45;24.80;99.90
5689;DHT22;2869;50.432;8.680;2023-07-24T10:41:13;24.70;99.90
5689;DHT22;2869;50.432;8.680;2023-07-24T10:43:41;24.60;99.90
5689;DHT22;2869;50.432;8.680;2023-07-24T10:46:09;24.80;99.90
5689;DHT22;2869;50.432;8.680;2023-07-24T10:48:35;24.90;99.90
5689;DHT22;2869;50.432;8.680;2023-07-24T10:51:06;24.90;99.90
5689;DHT22;2869;50.432;8.680;2023-07-24T10:53:35;24.90;99.90
5689;DHT22;2869;50.432;8.680;2023-07-24T10:56:03;24.90;99.90
5689;DHT22;2869;50.432;8.680;2023-07-24T10:58:30;25.10;99.90
5689;DHT22;2869;50.432;8.680;2023-07-24T11:00:57;25.10;99.90
5689;DHT22;2869;50.432;8.680;2023-07-24T11:03:24;25.20;99.90
5689;DHT22;2869;50.432;8.680;2023-07-24T11:05:52;25.20;99.90
5689;DHT22;2869;50.432;8.680;2023-07-24T11:08:20;25.20;99.90
5689;DHT22;2869;50.432;8.680;2023-07-24T11:10:48;25.30;99.90
5689;DHT22;2869;50.432;8.680;2023-07-24T11:13:16;25.40;99.90
5689;DHT22;2869;50.432;8.680;2023-07-24T11:15:43;25.60;99.90
5689;DHT22;2869;50.432;8.680;2023-07-24T11:18:10;25.90;99.90
5689;DHT22;2869;50.432;8.680;2023-07-24T11:20:38;25.90;99.90
5689;DHT22;2869;50.432;8.680;2023-07-24T11:23:05;26.00;99.90
5689;DHT22;2869;50.432;8.680;2023-07-24T11:25:32;25.90;99.90
5689;DHT22;2869;50.432;8.680;2023-07-24T11:28:00;25.70;99.90
5689;DHT22;2869;50.432;8.680;2023-07-24T11:30:26;25.60;99.90
5689;DHT22;2869;50.432;8.680;2023-07-24T11:32:53;25.30;99.90
5689;DHT22;2869;50.432;8.680;2023-07-24T11:35:21;25.20;99.90
5689;DHT22;2869;50.432;8.680;2023-07-24T11:37:48;25.10;99.90
5689;DHT22;2869;50.432;8.680;2023-07-24T11:40:14;25.10;99.90
5689;DHT22;2869;50.432;8.680;2023-07-24T11:42:43;25.20;99.90
5689;DHT22;2869;50.432;8.680;2023-07-24T11:45:11;25.50;99.90
5689;DHT22;2869;50.432;8.680;2023-07-24T11:47:42;25.60;99.90
5689;DHT22;2869;50.432;8.680;2023-07-24T11:50:09;25.60;99.90
5689;DHT22;2869;50.432;8.680;2023-07-24T11:52:40;25.50;99.90
5689;DHT22;2869;50.432;8.680;2023-07-24T11:55:09;25.50;99.90
5689;DHT22;2869;50.432;8.680;2023-07-24T11:57:35;25.60;99.90
5689;DHT22;2869;50.432;8.680;2023-07-24T12:00:03;25.70;99.90
5689;DHT22;2869;50.432;8.680;2023-07-24T12:02:32;25.80;99.90
5689;DHT22;2869;50.432;8.680;2023-07-24T12:05:00;26.00;99.90
5689;DHT22;2869;50.432;8.680;2023-07-24T12:07:32;26.20;99.90
5689;DHT22;2869;50.432;8.680;2023-07-24T12:09:59;26.40;99.90
5689;DHT22;2869;50.432;8.680;2023-07-24T12:12:39;26.70;99.90
5689;DHT22;2869;50.432;8.680;2023-07-24T12:15:07;26.80;99.90
5689;DHT22;2869;50.432;8.680;2023-07-24T12:17:35;27.00;99.90
5689;DHT22;2869;50.432;8.680;2023-07-24T12:20:02;27.30;99.90
5689;DHT22;2869;50.432;8.680;2023-07-24T12:22:29;27.40;99.90
5689;DHT22;2869;50.432;8.680;2023-07-24T12:24:56;27.70;99.90
5689;DHT22;2869;50.432;8.680;2023-07-24T12:27:23;27.80;99.90
5689;DHT22;2869;50.432;8.680;2023-07-24T12:29:50;27.80;99.90
5689;DHT22;2869;50.432;8.680;2023-07-24T12:32:17;27.50;99.90
5689;DHT22;2869;50.432;8.680;2023-07-24T12:34:46;28.00;99.90
5689;DHT22;2869;50.432;8.680;2023-07-24T12:37:13;27.90;99.90
5689;DHT22;2869;50.432;8.680;2023-07-24T12:39:40;27.90;99.90
5689;DHT22;2869;50.432;8.680;2023-07-24T12:42:06;27.90;99.90
5689;DHT22;2869;50.432;8.680;2023-07-24T12:44:33;27.90;99.90
5689;DHT22;2869;50.432;8.680;2023-07-24T12:47:00;27.90;99.90
5689;DHT22;2869;50.432;8.680;2023-07-24T12:49:26;27.70;99.90
5689;DHT22;2869;50.432;8.680;2023-07-24T12:51:54;27.70;99.90
5689;DHT22;2869;50.432;8.680;2023-07-24T12:54:21;27.80;99.90
5689;DHT22;2869;50.432;8.680;2023-07-24T12:56:48;28.00;99.90
5689;DHT22;2869;50.432;8.680;2023-07-24T12:59:15;28.40;99.90
5689;DHT22;2869;50.432;8.680;2023-07-24T13:01:42;28.70;99.90
5689;DHT22;2869;50.432;8.680;2023-07-24T13:04:09;28.40;99.90
5689;DHT22;2869;50.432;8.680;2023-07-24T13:06:35;28.20;99.90
5689;DHT22;2869;50.432;8.680;2023-07-24T13:09:04;28.40;99.90
5689;DHT22;2869;50.432;8.680;2023-07-24T13:11:31;28.70;99.90
5689;DHT22;2869;50.432;8.680;2023-07-24T13:13:58;28.40;99.90
5689;DHT22;2869;50.432;8.680;2023-07-24T13:16:24;28.50;99.90
5689;DHT22;2869;50.432;8.680;2023-07-24T13:18:51;27.90;99.90
5689;DHT22;2869;50.432;8.680;2023-07-24T13:21:18;27.30;99.90
5689;DHT22;2869;50.432;8.680;2023-07-24T13:23:44;27.20;99.90
5689;DHT22;2869;50.432;8.680;2023-07-24T13:26:13;27.00;99.90
5689;DHT22;2869;50.432;8.680;2023-07-24T13:28:40;26.80;99.90
5689;DHT22;2869;50.432;8.680;2023-07-24T13:31:14;27.00;99.90
5689;DHT22;2869;50.432;8.680;2023-07-24T13:33:41;27.40;99.90
5689;DHT22;2869;50.432;8.680;2023-07-24T13:36:07;27.60;99.90
5689;DHT22;2869;50.432;8.680;2023-07-24T13:38:34;27.60;99.90
5689;DHT22;2869;50.432;8.680;2023-07-24T13:41:02;27.40;99.90
5689;DHT22;2869;50.432;8.680;2023-07-24T13:43:33;27.10;99.90
5689;DHT22;2869;50.432;8.680;2023-07-24T13:45:59;27.20;99.90
5689;DHT22;2869;50.432;8.680;2023-07-24T13:48:28;27.30;99.90
5689;DHT22;2869;50.432;8.680;2023-07-24T13:50:54;27.30;99.90
5689;DHT22;2869;50.432;8.680;2023-07-24T13:53:21;27.10;99.90
5689;DHT22;2869;50.432;8.680;2023-07-24T13:55:48;26.80;99.90
5689;DHT22;2869;50.432;8.680;2023-07-24T13:58:14;26.30;99.90
5689;DHT22;2869;50.432;8.680;2023-07-24T14:00:42;26.00;99.90
5689;DHT22;2869;50.432;8.680;2023-07-24T14:03:09;25.80;99.90
5689;DHT22;2869;50.432;8.680;2023-07-24T14:05:36;25.70;99.90
5689;DHT22;2869;50.432;8.680;2023-07-24T14:08:03;25.50;99.90
5689;DHT22;2869;50.432;8.680;2023-07-24T14:10:30;25.50;99.90
5689;DHT22;2869;50.432;8.680;2023-07-24T14:12:57;25.50;99.90
5689;DHT22;2869;50.432;8.680;2023-07-24T14:15:23;25.50;99.90
5689;DHT22;2869;50.432;8.680;2023-07-24T14:17:51;25.30;99.90
5689;DHT22;2869;50.432;8.680;2023-07-24T14:20:18;25.10;99.90
5689;DHT22;2869;50.432;8.680;2023-07-24T14:22:45;24.70;99.90
5689;DHT22;2869;50.432;8.680;2023-07-24T14:25:12;24.30;99.90
5689;DHT22;2869;50.432;8.680;2023-07-24T14:27:38;24.20;99.90
5689;DHT22;2869;50.432;8.680;2023-07-24T14:30:08;24.00;99.90
5689;DHT22;2869;50.432;8.680;2023-07-24T14:32:34;24.00;99.90
5689;DHT22;2869;50.432;8.680;2023-07-24T14:35:03;24.00;99.90
5689;DHT22;2869;50.432;8.680;2023-07-24T14:37:29;24.00;99.90
5689;DHT22;2869;50.432;8.680;2023-07-24T14:39:56;24.20;99.90
5689;DHT22;2869;50.432;8.680;2023-07-24T14:42:23;24.20;99.90
5689;DHT22;2869;50.432;8.680;2023-07-24T14:44:49;24.60;99.90
5689;DHT22;2869;50.432;8.680;2023-07-24T14:47:16;24.80;99.90
5689;DHT22;2869;50.432;8.680;2023-07-24T14:49:43;25.10;99.90
5689;DHT22;2869;50.432;8.680;2023-07-24T14:52:11;25.40;99.90
5689;DHT22;2869;50.432;8.680;2023-07-24T14:54:38;25.90;99.90
5689;DHT22;2869;50.432;8.680;2023-07-24T14:57:05;26.10;99.90
5689;DHT22;2869;50.432;8.680;2023-07-24T14:59:32;26.20;99.90
5689;DHT22;2869;50.432;8.680;2023-07-24T15:01:58;25.70;99.90
5689;DHT22;2869;50.432;8.680;2023-07-24T15:04:25;25.50;99.90
5689;DHT22;2869;50.432;8.680;2023-07-24T15:06:51;25.10;99.90
5689;DHT22;2869;50.432;8.680;2023-07-24T15:09:19;24.70;99.90
5689;DHT22;2869;50.432;8.680;2023-07-24T15:11:46;24.60;99.90
5689;DHT22;2869;50.432;8.680;2023-07-24T15:14:13;24.80;99.90
5689;DHT22;2869;50.432;8.680;2023-07-24T15:16:40;24.70;99.90
5689;DHT22;2869;50.432;8.680;2023-07-24T15:19:07;24.70;99.90
5689;DHT22;2869;50.432;8.680;2023-07-24T15:21:33;25.10;99.90
5689;DHT22;2869;50.432;8.680;2023-07-24T15:24:00;25.20;99.90
5689;DHT22;2869;50.432;8.680;2023-07-24T15:26:28;25.40;99.90
5689;DHT22;2869;50.432;8.680;2023-07-24T15:28:54;25.70;99.90
5689;DHT22;2869;50.432;8.680;2023-07-24T15:31:21;25.70;99.90
5689;DHT22;2869;50.432;8.680;2023-07-24T15:33:48;25.90;99.90
5689;DHT22;2869;50.432;8.680;2023-07-24T15:36:14;25.70;99.90
5689;DHT22;2869;50.432;8.680;2023-07-24T15:38:41;25.70;99.90
5689;DHT22;2869;50.432;8.680;2023-07-24T15:41:07;25.80;99.90
5689;DHT22;2869;50.432;8.680;2023-07-24T15:43:35;25.50;99.90
5689;DHT22;2869;50.432;8.680;2023-07-24T15:46:02;25.30;99.90
5689;DHT22;2869;50.432;8.680;2023-07-24T15:48:29;25.30;99.90
5689;DHT22;2869;50.432;8.680;2023-07-24T15:50:55;25.30;99.90
5689;DHT22;2869;50.432;8.680;2023-07-24T15:53:22;25.50;99.90
5689;DHT22;2869;50.432;8.680;2023-07-24T15:55:49;25.80;99.90
5689;DHT22;2869;50.432;8.680;2023-07-24T15:58:15;26.10;99.90
5689;DHT22;2869;50.432;8.680;2023-07-24T16:00:43;26.20;99.90